sensor_id;sensor_type;location;lat;lon;timestamp;pressure;altitude;pressure_sealevel;temperature;humidity
12897;BME280;6516;35.028;32.372;2023-02-12T00:00:55;100757.13;;;8.38;61.52
12897;BME280;6516;35.028;32.372;2023-02-12T00:03:23;100755.41;;;8.43;61.06
12897;BME280;6516;35.028;32.372;2023-02-12T00:05:52;100751.00;;;8.44;61.60
12897;BME280;6516;35.028;32.372;2023-02-12T00:08:20;100746.66;;;8.44;61.28
12897;BME280;6516;35.028;32.372;2023-02-12T00:10:48;100748.41;;;8.45;61.13
12897;BME280;6516;35.028;32.372;2023-02-12T00:13:16;100742.28;;;8.48;61.63
12897;BME280;6516;35.028;32.372;2023-02-12T00:15:43;100746.66;;;8.46;61.37
12897;BME280;6516;35.028;32.372;2023-02-12T00:18:13;100748.38;;;8.42;61.80
12897;BME280;6516;35.028;32.372;2023-02-12T00:20:40;100742.25;;;8.45;61.99
12897;BME280;6516;35.028;32.372;2023-02-12T00:23:09;100743.16;;;8.41;61.62
12897;BME280;6516;35.028;32.372;2023-02-12T00:25:40;100745.78;;;8.38;62.85
12897;BME280;6516;35.028;32.372;2023-02-12T00:28:08;100745.78;;;8.41;62.35
12897;BME280;6516;35.028;32.372;2023-02-12T00:30:36;100738.75;;;8.38;62.61
12897;BME280;6516;35.028;32.372;2023-02-12T00:33:03;100737.03;;;8.34;62.96
12897;BME280;6516;35.028;32.372;2023-02-12T00:35:33;100735.28;;;8.30;63.00
12897;BME280;6516;35.028;32.372;2023-02-12T00:38:01;100730.03;;;8.27;63.17
12897;BME280;6516;35.028;32.372;2023-02-12T00:40:28;100734.41;;;8.37;62.57
12897;BME280;6516;35.028;32.372;2023-02-12T00:42:56;100730.91;;;8.35;62.65
12897;BME280;6516;35.028;32.372;2023-02-12T00:45:24;100733.53;;;8.37;62.11
12897;BME280;6516;35.028;32.372;2023-02-12T00:47:52;100730.91;;;8.32;63.05
12897;BME280;6516;35.028;32.372;2023-02-12T00:50:20;100729.13;;;8.27;64.17
12897;BME280;6516;35.028;32.372;2023-02-12T00:52:49;100726.50;;;8.16;65.08
12897;BME280;6516;35.028;32.372;2023-02-12T00:55:17;100727.34;;;8.09;64.97
12897;BME280;6516;35.028;32.372;2023-02-12T00:57:45;100722.09;;;8.03;65.23
12897;BME280;6516;35.028;32.372;2023-02-12T01:00:14;100730.81;;;7.95;65.97
12897;BME280;6516;35.028;32.372;2023-02-12T01:02:42;100715.97;;;8.04;65.38
12897;BME280;6516;35.028;32.372;2023-02-12T01:05:10;100731.72;;;7.98;65.21
12897;BME280;6516;35.028;32.372;2023-02-12T01:07:38;100727.31;;;7.91;65.34
12897;BME280;6516;35.028;32.372;2023-02-12T01:10:08;100722.94;;;7.81;65.78
12897;BME280;6516;35.028;32.372;2023-02-12T01:12:36;100720.28;;;7.72;66.34
12897;BME280;6516;35.028;32.372;2023-02-12T01:15:04;100716.81;;;7.76;65.73
12897;BME280;6516;35.028;32.372;2023-02-12T01:17:35;100720.28;;;7.66;66.54
12897;BME280;6516;35.028;32.372;2023-02-12T01:20:04;100722.84;;;7.59;67.00
12897;BME280;6516;35.028;32.372;2023-02-12T01:22:33;100715.78;;;7.38;67.88
12897;BME280;6516;35.028;32.372;2023-02-12T01:25:01;100717.53;;;7.29;68.39
12897;BME280;6516;35.028;32.372;2023-02-12T01:27:32;100712.25;;;7.20;68.74
12897;BME280;6516;35.028;32.372;2023-02-12T01:30:00;100720.97;;;7.17;68.85
12897;BME280;6516;35.028;32.372;2023-02-12T01:32:27;100720.03;;;7.09;69.34
12897;BME280;6516;35.028;32.372;2023-02-12T01:34:55;100718.25;;;7.02;69.73
12897;BME280;6516;35.028;32.372;2023-02-12T01:37:23;100718.25;;;7.02;69.11
12897;BME280;6516;35.028;32.372;2023-02-12T01:39:50;100716.50;;;6.98;69.28
12897;BME280;6516;35.028;32.372;2023-02-12T01:42:18;100719.09;;;6.97;69.37
12897;BME280;6516;35.028;32.372;2023-02-12T01:48:17;100718.22;;;6.98;68.08
12897;BME280;6516;35.028;32.372;2023-02-12T01:50:47;100716.56;;;7.13;67.25
12897;BME280;6516;35.028;32.372;2023-02-12T01:53:18;100718.28;;;7.07;69.07
12897;BME280;6516;35.028;32.372;2023-02-12T01:55:48;100713.06;;;7.08;68.03
12897;BME280;6516;35.028;32.372;2023-02-12T01:58:18;100716.44;;;6.92;69.18
12897;BME280;6516;35.028;32.372;2023-02-12T02:00:46;100715.50;;;6.84;69.22
12897;BME280;6516;35.028;32.372;2023-02-12T02:03:15;100714.63;;;6.79;69.52
12897;BME280;6516;35.028;32.372;2023-02-12T02:05:48;100711.09;;;6.71;70.51
12897;BME280;6516;35.028;32.372;2023-02-12T02:08:21;100710.22;;;6.72;69.93
12897;BME280;6516;35.028;32.372;2023-02-12T02:10:49;100708.38;;;6.59;70.12
12897;BME280;6516;35.028;32.372;2023-02-12T02:13:17;100706.66;;;6.63;69.62
12897;BME280;6516;35.028;32.372;2023-02-12T02:16:10;100707.53;;;6.57;69.95
12897;BME280;6516;35.028;32.372;2023-02-12T02:18:52;100707.44;;;6.48;70.62
12897;BME280;6516;35.028;32.372;2023-02-12T02:21:50;100706.66;;;6.58;69.08
12897;BME280;6516;35.028;32.372;2023-02-12T02:25:05;100708.41;;;6.62;68.84
12897;BME280;6516;35.028;32.372;2023-02-12T02:27:56;100711.09;;;6.71;68.06
12897;BME280;6516;35.028;32.372;2023-02-12T02:30:39;100712.66;;;6.50;69.76
12897;BME280;6516;35.028;32.372;2023-02-12T02:33:21;100717.78;;;6.33;70.75
12897;BME280;6516;35.028;32.372;2023-02-12T02:36:01;100714.28;;;6.34;70.25
12897;BME280;6516;35.028;32.372;2023-02-12T02:38:46;100709.84;;;6.21;70.61
12897;BME280;6516;35.028;32.372;2023-02-12T02:41:20;100713.22;;;6.11;71.25
12897;BME280;6516;35.028;32.372;2023-02-12T02:43:52;100725.50;;;6.23;70.17
12897;BME280;6516;35.028;32.372;2023-02-12T02:46:26;100710.69;;;6.17;70.57
12897;BME280;6516;35.028;32.372;2023-02-12T02:48:59;100716.66;;;6.07;70.89
12897;BME280;6516;35.028;32.372;2023-02-12T02:51:31;100724.25;;;5.82;71.85
12897;BME280;6516;35.028;32.372;2023-02-12T02:54:05;100725.03;;;5.75;72.05
12897;BME280;6516;35.028;32.372;2023-02-12T02:56:38;100722.44;;;5.79;71.81
12897;BME280;6516;35.028;32.372;2023-02-12T02:59:11;100720.50;;;5.60;72.86
12897;BME280;6516;35.028;32.372;2023-02-12T03:01:47;100722.16;;;5.52;72.84
12897;BME280;6516;35.028;32.372;2023-02-12T03:04:23;100722.13;;;5.49;73.08
12897;BME280;6516;35.028;32.372;2023-02-12T03:06:59;100721.09;;;5.35;73.75
12897;BME280;6516;35.028;32.372;2023-02-12T03:09:33;100723.63;;;5.31;74.09
12897;BME280;6516;35.028;32.372;2023-02-12T03:12:08;100721.94;;;5.33;73.93
12897;BME280;6516;35.028;32.372;2023-02-12T03:14:42;100723.56;;;5.25;74.14
12897;BME280;6516;35.028;32.372;2023-02-12T03:17:17;100722.63;;;5.21;73.88
12897;BME280;6516;35.028;32.372;2023-02-12T03:19:52;100731.16;;;5.07;74.68
12897;BME280;6516;35.028;32.372;2023-02-12T03:22:26;100731.03;;;4.98;74.93
12897;BME280;6516;35.028;32.372;2023-02-12T03:24:57;100730.84;;;4.86;75.67
12897;BME280;6516;35.028;32.372;2023-02-12T03:27:31;100732.56;;;4.82;75.82
12897;BME280;6516;35.028;32.372;2023-02-12T03:30:01;100733.47;;;4.86;75.94
12897;BME280;6516;35.028;32.372;2023-02-12T03:32:45;100731.03;;;4.98;74.87
12897;BME280;6516;35.028;32.372;2023-02-12T03:35:20;100734.41;;;4.91;75.53
12897;BME280;6516;35.028;32.372;2023-02-12T03:37:55;100728.22;;;4.84;75.33
12897;BME280;6516;35.028;32.372;2023-02-12T03:40:28;100729.97;;;4.84;75.43
12897;BME280;6516;35.028;32.372;2023-02-12T03:43:03;100730.81;;;4.84;75.37
12897;BME280;6516;35.028;32.372;2023-02-12T03:45:40;100731.63;;;4.80;75.29
12897;BME280;6516;35.028;32.372;2023-02-12T03:48:21;100728.22;;;4.84;75.11
12897;BME280;6516;35.028;32.372;2023-02-12T03:50:54;100735.22;;;4.88;74.78
12897;BME280;6516;35.028;32.372;2023-02-12T03:53:25;100737.94;;;4.93;74.72
12897;BME280;6516;35.028;32.372;2023-02-12T03:55:56;100739.81;;;5.04;74.15
12897;BME280;6516;35.028;32.372;2023-02-12T03:58:29;100735.53;;;5.08;73.88
12897;BME280;6516;35.028;32.372;2023-02-12T04:01:01;100743.44;;;5.15;73.46
12897;BME280;6516;35.028;32.372;2023-02-12T04:03:31;100748.59;;;5.09;73.68
12897;BME280;6516;35.028;32.372;2023-02-12T04:05:59;100740.56;;;4.94;74.23
12897;BME280;6516;35.028;32.372;2023-02-12T04:08:27;100738.72;;;4.87;74.59
12897;BME280;6516;35.028;32.372;2023-02-12T04:11:01;100737.00;;;4.91;74.41
12897;BME280;6516;35.028;32.372;2023-02-12T04:13:41;100745.53;;;4.79;75.04
12897;BME280;6516;35.028;32.372;2023-02-12T04:16:18;100745.34;;;4.66;75.61
12897;BME280;6516;35.028;32.372;2023-02-12T04:18:52;100745.34;;;4.66;75.58
12897;BME280;6516;35.028;32.372;2023-02-12T04:21:32;100744.53;;;4.70;75.30
12897;BME280;6516;35.028;32.372;2023-02-12T04:24:16;100743.03;;;4.87;74.21
12897;BME280;6516;35.028;32.372;2023-02-12T04:26:49;100744.09;;;4.99;73.16
12897;BME280;6516;35.028;32.372;2023-02-12T04:29:27;100737.25;;;5.09;72.42
12897;BME280;6516;35.028;32.372;2023-02-12T04:32:04;100748.69;;;5.17;72.37
12897;BME280;6516;35.028;32.372;2023-02-12T04:34:42;100740.16;;;5.30;70.97
12897;BME280;6516;35.028;32.372;2023-02-12T04:37:16;100737.81;;;5.49;68.89
12897;BME280;6516;35.028;32.372;2023-02-12T04:39:48;100740.56;;;5.64;68.42
12897;BME280;6516;35.028;32.372;2023-02-12T04:42:18;100738.94;;;5.72;67.96
12897;BME280;6516;35.028;32.372;2023-02-12T04:44:46;100740.63;;;5.70;68.86
12897;BME280;6516;35.028;32.372;2023-02-12T04:47:15;100741.50;;;5.69;68.62
12897;BME280;6516;35.028;32.372;2023-02-12T04:49:44;100748.47;;;5.67;68.45
12897;BME280;6516;35.028;32.372;2023-02-12T04:52:12;100747.47;;;5.58;68.91
12897;BME280;6516;35.028;32.372;2023-02-12T04:54:40;100757.06;;;5.60;68.63
12897;BME280;6516;35.028;32.372;2023-02-12T04:57:08;100757.09;;;5.62;68.82
12897;BME280;6516;35.028;32.372;2023-02-12T04:59:36;100757.13;;;5.65;68.10
12897;BME280;6516;35.028;32.372;2023-02-12T05:02:04;100763.31;;;5.71;67.78
12897;BME280;6516;35.028;32.372;2023-02-12T05:04:31;100767.69;;;5.74;67.61
12897;BME280;6516;35.028;32.372;2023-02-12T05:07:01;100760.72;;;5.76;67.80
12897;BME280;6516;35.028;32.372;2023-02-12T05:09:29;100767.00;;;5.88;66.70
12897;BME280;6516;35.028;32.372;2023-02-12T05:11:56;100764.53;;;6.02;66.66
12897;BME280;6516;35.028;32.372;2023-02-12T05:14:25;100769.84;;;6.09;66.52
12897;BME280;6516;35.028;32.372;2023-02-12T05:16:52;100771.63;;;6.16;66.87
12897;BME280;6516;35.028;32.372;2023-02-12T05:19:20;100773.50;;;6.26;66.54
12897;BME280;6516;35.028;32.372;2023-02-12T05:21:49;100771.91;;;6.45;65.83
12897;BME280;6516;35.028;32.372;2023-02-12T05:24:18;100775.44;;;6.51;66.27
12897;BME280;6516;35.028;32.372;2023-02-12T05:26:47;100777.28;;;6.63;65.84
12897;BME280;6516;35.028;32.372;2023-02-12T05:29:15;100771.25;;;6.73;65.18
12897;BME280;6516;35.028;32.372;2023-02-12T05:31:43;100772.25;;;6.85;64.67
12897;BME280;6516;35.028;32.372;2023-02-12T05:34:12;100775.81;;;6.99;64.17
12897;BME280;6516;35.028;32.372;2023-02-12T05:36:40;100780.31;;;7.18;62.71
12897;BME280;6516;35.028;32.372;2023-02-12T05:39:09;100782.09;;;7.30;63.67
12897;BME280;6516;35.028;32.372;2023-02-12T05:41:39;100785.69;;;7.51;65.33
12897;BME280;6516;35.028;32.372;2023-02-12T05:44:06;100784.88;;;7.64;65.13
12897;BME280;6516;35.028;32.372;2023-02-12T05:46:37;100783.19;;;7.75;63.93
12897;BME280;6516;35.028;32.372;2023-02-12T05:49:04;100783.22;;;7.89;62.85
12897;BME280;6516;35.028;32.372;2023-02-12T05:51:32;100785.00;;;8.06;60.64
12897;BME280;6516;35.028;32.372;2023-02-12T05:54:02;100784.22;;;8.24;60.15
12897;BME280;6516;35.028;32.372;2023-02-12T05:56:33;100777.25;;;8.44;59.48
12897;BME280;6516;35.028;32.372;2023-02-12T05:59:04;100779.03;;;8.61;59.50
12897;BME280;6516;35.028;32.372;2023-02-12T06:01:35;100777.25;;;8.80;59.40
12897;BME280;6516;35.028;32.372;2023-02-12T06:04:07;100779.88;;;9.02;59.09
12897;BME280;6516;35.028;32.372;2023-02-12T06:06:37;100779.84;;;9.20;59.12
12897;BME280;6516;35.028;32.372;2023-02-12T06:09:07;100791.13;;;9.45;58.94
12897;BME280;6516;35.028;32.372;2023-02-12T06:11:36;100786.69;;;9.68;58.11
12897;BME280;6516;35.028;32.372;2023-02-12T06:14:06;100787.47;;;9.91;56.30
12897;BME280;6516;35.028;32.372;2023-02-12T06:16:35;100786.47;;;10.14;55.52
12897;BME280;6516;35.028;32.372;2023-02-12T06:19:04;100784.59;;;10.36;53.91
12897;BME280;6516;35.028;32.372;2023-02-12T06:21:32;100786.13;;;10.61;53.92
12897;BME280;6516;35.028;32.372;2023-02-12T06:24:00;100779.81;;;10.83;51.87
12897;BME280;6516;35.028;32.372;2023-02-12T06:26:28;100785.69;;;11.10;52.22
12897;BME280;6516;35.028;32.372;2023-02-12T06:28:56;100785.47;;;11.32;49.19
12897;BME280;6516;35.028;32.372;2023-02-12T06:31:27;100786.88;;;11.66;49.43
12897;BME280;6516;35.028;32.372;2023-02-12T06:33:58;100781.16;;;12.02;47.63
12897;BME280;6516;35.028;32.372;2023-02-12T06:36:27;100781.63;;;12.29;45.03
12897;BME280;6516;35.028;32.372;2023-02-12T06:38:55;100786.34;;;12.64;44.52
12897;BME280;6516;35.028;32.372;2023-02-12T06:41:23;100768.19;;;12.99;43.29
12897;BME280;6516;35.028;32.372;2023-02-12T06:43:54;100771.84;;;13.39;42.15
12897;BME280;6516;35.028;32.372;2023-02-12T06:46:22;100765.16;;;13.64;42.11
12897;BME280;6516;35.028;32.372;2023-02-12T06:48:53;100771.75;;;13.86;42.14
12897;BME280;6516;35.028;32.372;2023-02-12T06:51:22;100773.66;;;14.20;42.24
12897;BME280;6516;35.028;32.372;2023-02-12T06:53:52;100774.88;;;14.44;39.50
12897;BME280;6516;35.028;32.372;2023-02-12T06:56:21;100764.94;;;14.53;39.48
12897;BME280;6516;35.028;32.372;2023-02-12T06:58:52;100774.16;;;14.74;39.56
12897;BME280;6516;35.028;32.372;2023-02-12T07:01:22;100768.22;;;14.98;39.68
12897;BME280;6516;35.028;32.372;2023-02-12T07:03:54;100775.56;;;15.20;38.41
12897;BME280;6516;35.028;32.372;2023-02-12T07:06:24;100772.38;;;15.41;38.47
12897;BME280;6516;35.028;32.372;2023-02-12T07:08:53;100776.94;;;15.67;37.87
12897;BME280;6516;35.028;32.372;2023-02-12T07:11:22;100774.22;;;15.99;37.28
12897;BME280;6516;35.028;32.372;2023-02-12T07:13:51;100765.66;;;16.18;36.77
12897;BME280;6516;35.028;32.372;2023-02-12T07:16:23;100778.59;;;16.30;36.15
12897;BME280;6516;35.028;32.372;2023-02-12T07:18:52;100774.72;;;16.42;35.99
12897;BME280;6516;35.028;32.372;2023-02-12T07:21:20;100774.97;;;16.60;36.11
12897;BME280;6516;35.028;32.372;2023-02-12T07:23:51;100772.28;;;16.62;35.08
12897;BME280;6516;35.028;32.372;2023-02-12T07:26:20;100774.63;;;16.71;35.09
12897;BME280;6516;35.028;32.372;2023-02-12T07:28:49;100771.72;;;16.78;35.40
12897;BME280;6516;35.028;32.372;2023-02-12T07:31:18;100766.03;;;17.15;34.90
12897;BME280;6516;35.028;32.372;2023-02-12T07:33:48;100767.16;;;17.32;34.66
12897;BME280;6516;35.028;32.372;2023-02-12T07:36:18;100768.56;;;17.44;34.22
12897;BME280;6516;35.028;32.372;2023-02-12T07:38:46;100764.06;;;17.46;34.42
12897;BME280;6516;35.028;32.372;2023-02-12T07:41:15;100763.06;;;17.24;33.46
12897;BME280;6516;35.028;32.372;2023-02-12T07:43:45;100763.47;;;17.36;33.91
12897;BME280;6516;35.028;32.372;2023-02-12T07:46:16;100762.47;;;17.65;34.63
12897;BME280;6516;35.028;32.372;2023-02-12T07:48:45;100762.75;;;17.57;33.18
12897;BME280;6516;35.028;32.372;2023-02-12T07:51:15;100761.88;;;17.57;33.65
12897;BME280;6516;35.028;32.372;2023-02-12T07:53:45;100760.28;;;17.51;33.97
12897;BME280;6516;35.028;32.372;2023-02-12T07:56:14;100764.91;;;17.71;34.41
12897;BME280;6516;35.028;32.372;2023-02-12T07:58:44;100762.53;;;17.86;33.85
12897;BME280;6516;35.028;32.372;2023-02-12T08:01:17;100760.25;;;17.76;33.53
12897;BME280;6516;35.028;32.372;2023-02-12T08:03:46;100761.50;;;17.90;33.90
12897;BME280;6516;35.028;32.372;2023-02-12T08:06:18;100756.81;;;17.97;32.76
12897;BME280;6516;35.028;32.372;2023-02-12T08:08:49;100757.84;;;18.16;33.12
12897;BME280;6516;35.028;32.372;2023-02-12T08:11:17;100756.91;;;18.17;33.08
12897;BME280;6516;35.028;32.372;2023-02-12T08:13:45;100757.09;;;18.12;32.87
12897;BME280;6516;35.028;32.372;2023-02-12T08:16:14;100757.22;;;18.31;32.75
12897;BME280;6516;35.028;32.372;2023-02-12T08:18:43;100759.28;;;18.47;32.73
12897;BME280;6516;35.028;32.372;2023-02-12T08:21:13;100757.59;;;18.22;31.67
12897;BME280;6516;35.028;32.372;2023-02-12T08:23:44;100764.94;;;18.15;32.70
12897;BME280;6516;35.028;32.372;2023-02-12T08:26:16;100759.09;;;18.29;33.40
12897;BME280;6516;35.028;32.372;2023-02-12T08:28:47;100754.44;;;18.35;33.28
12897;BME280;6516;35.028;32.372;2023-02-12T08:31:17;100750.09;;;18.54;32.45
12897;BME280;6516;35.028;32.372;2023-02-12T08:33:46;100750.09;;;18.54;33.22
12897;BME280;6516;35.028;32.372;2023-02-12T08:36:16;100757.72;;;18.63;32.53
12897;BME280;6516;35.028;32.372;2023-02-12T08:38:47;100752.91;;;18.93;32.54
12897;BME280;6516;35.028;32.372;2023-02-12T08:41:16;100750.94;;;19.18;32.35
12897;BME280;6516;35.028;32.372;2023-02-12T08:43:46;100750.94;;;19.18;32.06
12897;BME280;6516;35.028;32.372;2023-02-12T08:46:18;100752.00;;;19.14;31.38
12897;BME280;6516;35.028;32.372;2023-02-12T08:48:47;100747.63;;;19.33;31.29
12897;BME280;6516;35.028;32.372;2023-02-12T08:51:16;100754.81;;;19.31;31.62
12897;BME280;6516;35.028;32.372;2023-02-12T08:53:50;100752.63;;;19.40;31.24
12897;BME280;6516;35.028;32.372;2023-02-12T08:56:22;100757.09;;;19.60;31.60
12897;BME280;6516;35.028;32.372;2023-02-12T08:58:50;100751.41;;;19.67;30.70
12897;BME280;6516;35.028;32.372;2023-02-12T09:01:20;100743.91;;;19.76;30.51
12897;BME280;6516;35.028;32.372;2023-02-12T09:03:49;100744.66;;;19.98;31.09
12897;BME280;6516;35.028;32.372;2023-02-12T09:06:21;100739.31;;;20.16;30.98
12897;BME280;6516;35.028;32.372;2023-02-12T09:08:52;100737.13;;;20.06;31.43
12897;BME280;6516;35.028;32.372;2023-02-12T09:11:22;100740.56;;;20.09;31.48
12897;BME280;6516;35.028;32.372;2023-02-12T09:13:56;100737.41;;;20.00;30.76
12897;BME280;6516;35.028;32.372;2023-02-12T09:16:25;100737.13;;;20.06;31.40
12897;BME280;6516;35.028;32.372;2023-02-12T09:18:53;100735.47;;;20.03;31.39
12897;BME280;6516;35.028;32.372;2023-02-12T09:21:22;100730.28;;;20.00;31.14
12897;BME280;6516;35.028;32.372;2023-02-12T09:23:52;100731.19;;;19.99;31.68
12897;BME280;6516;35.028;32.372;2023-02-12T09:26:21;100721.50;;;20.17;31.26
12897;BME280;6516;35.028;32.372;2023-02-12T09:28:51;100723.53;;;20.12;31.14
12897;BME280;6516;35.028;32.372;2023-02-12T09:31:21;100724.63;;;19.88;31.47
12897;BME280;6516;35.028;32.372;2023-02-12T09:33:51;100727.94;;;19.74;32.17
12897;BME280;6516;35.028;32.372;2023-02-12T09:36:19;100727.88;;;19.76;31.12
12897;BME280;6516;35.028;32.372;2023-02-12T09:38:47;100722.25;;;19.43;31.50
12897;BME280;6516;35.028;32.372;2023-02-12T09:44:36;100719.81;;;19.17;32.35
12897;BME280;6516;35.028;32.372;2023-02-12T09:47:14;100720.47;;;19.02;33.83
12897;BME280;6516;35.028;32.372;2023-02-12T09:49:56;100717.53;;;19.08;32.85
12897;BME280;6516;35.028;32.372;2023-02-12T09:52:33;100719.09;;;19.13;34.39
12897;BME280;6516;35.028;32.372;2023-02-12T09:55:01;100706.97;;;19.06;33.90
12897;BME280;6516;35.028;32.372;2023-02-12T09:57:32;100713.25;;;19.04;33.64
12897;BME280;6516;35.028;32.372;2023-02-12T10:00:05;100708.59;;;18.89;33.64
12897;BME280;6516;35.028;32.372;2023-02-12T10:02:34;100709.72;;;18.83;34.97
12897;BME280;6516;35.028;32.372;2023-02-12T10:05:03;100709.72;;;18.83;34.38
12897;BME280;6516;35.028;32.372;2023-02-12T10:07:50;100705.34;;;19.02;34.13
12897;BME280;6516;35.028;32.372;2023-02-12T10:10:31;100697.06;;;18.88;33.87
12897;BME280;6516;35.028;32.372;2023-02-12T10:13:14;100702.75;;;19.01;34.15
12897;BME280;6516;35.028;32.372;2023-02-12T10:15:53;100691.78;;;19.07;33.84
12897;BME280;6516;35.028;32.372;2023-02-12T10:18:39;100695.41;;;19.06;33.86
12897;BME280;6516;35.028;32.372;2023-02-12T10:21:24;100692.59;;;19.09;34.27
12897;BME280;6516;35.028;32.372;2023-02-12T10:24:11;100695.28;;;19.09;34.52
12897;BME280;6516;35.028;32.372;2023-02-12T10:26:47;100698.53;;;18.95;34.42
12897;BME280;6516;35.028;32.372;2023-02-12T10:29:21;100687.06;;;18.93;33.95
12897;BME280;6516;35.028;32.372;2023-02-12T10:31:53;100691.19;;;19.00;34.25
12897;BME280;6516;35.028;32.372;2023-02-12T10:34:25;100690.13;;;19.04;35.13
12897;BME280;6516;35.028;32.372;2023-02-12T10:37:01;100687.34;;;19.07;35.48
12897;BME280;6516;35.028;32.372;2023-02-12T10:39:35;100691.19;;;19.20;35.58
12897;BME280;6516;35.028;32.372;2023-02-12T10:42:11;100685.31;;;19.12;34.50
12897;BME280;6516;35.028;32.372;2023-02-12T10:44:44;100678.69;;;19.21;34.39
12897;BME280;6516;35.028;32.372;2023-02-12T10:47:15;100679.94;;;19.14;34.52
12897;BME280;6516;35.028;32.372;2023-02-12T10:49:46;100681.94;;;19.09;35.25
12897;BME280;6516;35.028;32.372;2023-02-12T10:52:29;100688.69;;;18.97;35.25
12897;BME280;6516;35.028;32.372;2023-02-12T10:55:02;100677.78;;;19.02;35.65
12897;BME280;6516;35.028;32.372;2023-02-12T10:57:50;100675.25;;;18.79;35.51
12897;BME280;6516;35.028;32.372;2023-02-12T11:00:26;100684.44;;;18.72;35.68
12897;BME280;6516;35.028;32.372;2023-02-12T11:03:05;100676.03;;;18.61;35.63
12897;BME280;6516;35.028;32.372;2023-02-12T11:05:44;100677.91;;;18.59;36.55
12897;BME280;6516;35.028;32.372;2023-02-12T11:08:28;100667.13;;;18.60;35.75
12897;BME280;6516;35.028;32.372;2023-02-12T11:11:04;100671.06;;;18.52;35.96
12897;BME280;6516;35.028;32.372;2023-02-12T11:13:36;100666.34;;;18.58;36.12
12897;BME280;6516;35.028;32.372;2023-02-12T11:16:07;100669.50;;;18.68;37.04
12897;BME280;6516;35.028;32.372;2023-02-12T11:18:36;100665.56;;;18.76;36.61
12897;BME280;6516;35.028;32.372;2023-02-12T11:21:06;100670.84;;;18.78;37.28
12897;BME280;6516;35.028;32.372;2023-02-12T11:23:36;100666.19;;;18.83;37.17
12897;BME280;6516;35.028;32.372;2023-02-12T11:26:08;100671.63;;;18.80;36.73
12897;BME280;6516;35.028;32.372;2023-02-12T11:28:52;100662.56;;;18.84;36.77
12897;BME280;6516;35.028;32.372;2023-02-12T11:31:24;100674.56;;;18.94;37.42
12897;BME280;6516;35.028;32.372;2023-02-12T11:34:08;100663.78;;;18.97;37.31
12897;BME280;6516;35.028;32.372;2023-02-12T11:36:41;100674.78;;;18.89;36.99
12897;BME280;6516;35.028;32.372;2023-02-12T11:39:19;100672.44;;;19.02;35.18
12897;BME280;6516;35.028;32.372;2023-02-12T11:41:53;100672.69;;;18.76;36.20
12897;BME280;6516;35.028;32.372;2023-02-12T11:44:24;100678.09;;;18.74;35.91
12897;BME280;6516;35.028;32.372;2023-02-12T11:46:56;100677.53;;;18.46;36.92
12897;BME280;6516;35.028;32.372;2023-02-12T11:49:29;100674.91;;;18.45;36.50
12897;BME280;6516;35.028;32.372;2023-02-12T11:52:01;100678.72;;;18.39;36.75
12897;BME280;6516;35.028;32.372;2023-02-12T11:54:37;100677.78;;;18.40;36.65
12897;BME280;6516;35.028;32.372;2023-02-12T12:00:03;100667.22;;;18.37;37.42
12897;BME280;6516;35.028;32.372;2023-02-12T12:02:37;100677.19;;;18.32;37.56
12897;BME280;6516;35.028;32.372;2023-02-12T12:05:11;100679.50;;;18.20;37.91
12897;BME280;6516;35.028;32.372;2023-02-12T12:07:45;100673.28;;;18.19;37.39
12897;BME280;6516;35.028;32.372;2023-02-12T12:10:20;100673.28;;;18.19;37.04
12897;BME280;6516;35.028;32.372;2023-02-12T12:13:05;100677.84;;;18.39;37.81
12897;BME280;6516;35.028;32.372;2023-02-12T12:15:42;100675.06;;;18.42;36.21
12897;BME280;6516;35.028;32.372;2023-02-12T12:18:36;100681.50;;;18.36;37.68
12897;BME280;6516;35.028;32.372;2023-02-12T12:21:35;100679.75;;;18.14;36.99
12897;BME280;6516;35.028;32.372;2023-02-12T12:24:09;100678.97;;;18.10;37.61
12897;BME280;6516;35.028;32.372;2023-02-12T12:26:45;100679.75;;;18.14;38.21
12897;BME280;6516;35.028;32.372;2023-02-12T12:29:18;100685.81;;;17.73;37.71
12897;BME280;6516;35.028;32.372;2023-02-12T12:31:53;100686.56;;;17.53;38.57
12897;BME280;6516;35.028;32.372;2023-02-12T12:34:27;100687.75;;;17.45;39.62
12897;BME280;6516;35.028;32.372;2023-02-12T12:40:08;100687.03;;;17.41;39.88
12897;BME280;6516;35.028;32.372;2023-02-12T12:43:02;100679.63;;;17.49;39.48
12897;BME280;6516;35.028;32.372;2023-02-12T12:46:05;100697.56;;;17.44;39.38
12897;BME280;6516;35.028;32.372;2023-02-12T12:48:51;100689.53;;;17.46;39.29
12897;BME280;6516;35.028;32.372;2023-02-12T12:51:35;100692.41;;;17.63;38.62
12897;BME280;6516;35.028;32.372;2023-02-12T12:54:34;100698.06;;;17.77;38.80
12897;BME280;6516;35.028;32.372;2023-02-12T12:57:14;100693.50;;;18.03;39.44
12897;BME280;6516;35.028;32.372;2023-02-12T13:00:07;100691.84;;;17.78;39.40
12897;BME280;6516;35.028;32.372;2023-02-12T13:03:10;100703.19;;;17.11;40.30
12897;BME280;6516;35.028;32.372;2023-02-12T13:06:20;100702.78;;;16.46;40.94
12897;BME280;6516;35.028;32.372;2023-02-12T13:09:17;100711.69;;;15.89;42.94
12897;BME280;6516;35.028;32.372;2023-02-12T13:12:12;100714.22;;;15.34;44.28
12897;BME280;6516;35.028;32.372;2023-02-12T13:14:53;100717.31;;;14.85;45.80
12897;BME280;6516;35.028;32.372;2023-02-12T13:17:32;100709.16;;;14.58;46.29
12897;BME280;6516;35.028;32.372;2023-02-12T13:20:09;100719.34;;;14.39;47.54
12897;BME280;6516;35.028;32.372;2023-02-12T13:22:48;100723.16;;;14.28;48.59
12897;BME280;6516;35.028;32.372;2023-02-12T13:25:24;100720.22;;;14.02;49.37
12897;BME280;6516;35.028;32.372;2023-02-12T13:27:57;100730.34;;;13.82;50.22
12897;BME280;6516;35.028;32.372;2023-02-12T13:30:29;100722.84;;;13.62;50.91
12897;BME280;6516;35.028;32.372;2023-02-12T13:33:05;100731.44;;;13.31;51.79
12897;BME280;6516;35.028;32.372;2023-02-12T13:35:40;100726.59;;;13.08;53.46
12897;BME280;6516;35.028;32.372;2023-02-12T13:38:15;100739.22;;;12.90;53.79